Time;durP1;ratioP1;P1;durP2;ratioP2;P2;SDS_P1;SDS_P2;PMS_P1;PMS_P2;Temp;Humidity;BMP_temperature;BMP_pressure;BME280_temperature;BME280_humidity;BME280_pressure;Samples;Min_cycle;Max_cycle;Signal;HPM_P1;HPM_P2
2023/12/11 00:00:02;;;;;;;3.80;0.93;;;;;;;;;;10433992;28;20213;-75
2023/12/11 00:05:05;;;;;;;2.60;0.70;;;;;;;;;;10436547;28;20234;-75
2023/12/11 00:10:06;;;;;;;3.80;0.88;;;;;;;;;;10424790;28;20661;-75
2023/12/11 00:15:10;;;;;;;3.90;0.50;;;;;;;;;;10438647;28;20245;-75
2023/12/11 00:20:11;;;;;;;5.13;0.60;;;;;;;;;;10431411;28;20222;-74
2023/12/11 00:25:13;;;;;;;1.30;0.50;;;;;;;;;;10429193;28;20773;-75
2023/12/11 00:30:14;;;;;;;3.10;0.40;;;;;;;;;;10430656;28;20633;-75
2023/12/11 00:35:15;;;;;;;1.50;0.40;;;;;;;;;;10431619;28;20293;-75
2023/12/11 00:40:16;;;;;;;0.73;0.40;;;;;;;;;;10381242;28;20275;-74
2023/12/11 00:45:17;;;;;;;0.90;0.40;;;;;;;;;;10428710;28;20210;-75
2023/12/11 00:50:18;;;;;;;0.30;0.20;;;;;;;;;;10430381;28;20560;-75
2023/12/11 00:55:19;;;;;;;0.95;0.40;;;;;;;;;;10389377;28;20706;-76
2023/12/11 01:00:20;;;;;;;2.70;0.50;;;;;;;;;;10391498;28;20200;-75
2023/12/11 01:05:21;;;;;;;3.10;0.52;;;;;;;;;;10372094;28;20235;-76
2023/12/11 01:10:22;;;;;;;1.95;0.57;;;;;;;;;;10391066;28;20215;-75
2023/12/11 01:15:23;;;;;;;4.82;0.60;;;;;;;;;;10392248;28;20733;-75
2023/12/11 01:20:24;;;;;;;0.70;0.63;;;;;;;;;;10429946;28;20568;-76
2023/12/11 01:25:25;;;;;;;1.67;0.43;;;;;;;;;;10429692;28;20222;-76
2023/12/11 01:30:26;;;;;;;0.80;0.68;;;;;;;;;;10425581;28;20280;-76
2023/12/11 01:35:27;;;;;;;2.25;0.60;;;;;;;;;;10430115;28;20218;-76
2023/12/11 01:40:28;;;;;;;1.80;0.60;;;;;;;;;;10400774;28;20632;-76
2023/12/11 01:45:30;;;;;;;0.98;0.50;;;;;;;;;;10413996;28;20319;-76
2023/12/11 01:50:31;;;;;;;1.13;0.47;;;;;;;;;;10429619;28;20221;-77
2023/12/11 01:55:33;;;;;;;2.75;0.40;;;;;;;;;;10431029;28;20256;-77
2023/12/11 02:00:34;;;;;;;5.47;0.70;;;;;;;;;;10428324;28;20212;-77
2023/12/11 02:05:35;;;;;;;1.65;0.50;;;;;;;;;;10429600;28;20218;-77
2023/12/11 02:10:36;;;;;;;4.43;0.63;;;;;;;;;;10426698;28;20218;-77
2023/12/11 02:15:44;;;;;;;1.52;0.40;;;;;;;;;;10429232;28;20234;-77
2023/12/11 02:20:45;;;;;;;0.73;0.50;;;;;;;;;;10420365;28;20219;-76
2023/12/11 02:25:49;;;;;;;6.43;0.93;;;;;;;;;;10411951;28;20308;-77
2023/12/11 02:30:50;;;;;;;1.35;0.50;;;;;;;;;;10413122;28;20214;-76
2023/12/11 02:35:51;;;;;;;2.00;0.60;;;;;;;;;;10424424;28;20229;-75
2023/12/11 02:40:53;;;;;;;5.82;0.60;;;;;;;;;;10403370;28;20245;-76
2023/12/11 02:45:54;;;;;;;2.25;0.77;;;;;;;;;;10436235;28;20218;-77
2023/12/11 02:50:55;;;;;;;2.22;0.70;;;;;;;;;;10443747;28;20584;-78
2023/12/11 02:55:56;;;;;;;2.50;0.68;;;;;;;;;;10443995;28;20249;-77
2023/12/11 03:00:57;;;;;;;5.38;0.93;;;;;;;;;;10439410;28;20280;-78
2023/12/11 03:05:58;;;;;;;6.75;0.82;;;;;;;;;;10425427;28;20221;-78
2023/12/11 03:11:00;;;;;;;2.38;0.80;;;;;;;;;;10374871;28;20228;-77
2023/12/11 03:16:01;;;;;;;6.50;0.85;;;;;;;;;;10423748;28;20214;-77
2023/12/11 03:21:02;;;;;;;4.55;1.08;;;;;;;;;;10434138;28;20786;-78
2023/12/11 03:26:03;;;;;;;5.00;0.98;;;;;;;;;;10427089;28;20215;-78
2023/12/11 03:31:04;;;;;;;5.57;1.23;;;;;;;;;;10408571;28;20246;-77
2023/12/11 03:36:05;;;;;;;7.50;0.73;;;;;;;;;;10429871;28;20713;-77
2023/12/11 03:41:07;;;;;;;3.78;1.23;;;;;;;;;;10411526;28;20237;-77
2023/12/11 03:46:08;;;;;;;4.55;0.77;;;;;;;;;;10436536;28;20988;-77
2023/12/11 03:51:09;;;;;;;6.18;1.15;;;;;;;;;;10440737;28;20220;-77
2023/12/11 03:56:10;;;;;;;6.63;1.15;;;;;;;;;;10440434;28;20221;-77
2023/12/11 04:01:11;;;;;;;2.33;1.10;;;;;;;;;;10442578;28;20225;-77
2023/12/11 04:06:12;;;;;;;3.17;1.23;;;;;;;;;;10464249;28;20260;-78
2023/12/11 04:11:13;;;;;;;3.30;0.90;;;;;;;;;;10428837;28;20211;-78
2023/12/11 04:16:14;;;;;;;5.00;1.58;;;;;;;;;;10441035;28;20231;-78
2023/12/11 04:21:15;;;;;;;4.43;1.20;;;;;;;;;;10424160;28;20225;-76
2023/12/11 04:26:16;;;;;;;5.03;1.25;;;;;;;;;;10435254;28;20219;-77
2023/12/11 04:31:21;;;;;;;4.80;1.27;;;;;;;;;;10417341;28;20207;-77
2023/12/11 04:36:22;;;;;;;4.43;1.20;;;;;;;;;;10438342;28;20230;-76
2023/12/11 04:41:23;;;;;;;8.52;1.08;;;;;;;;;;10430360;28;20301;-78
2023/12/11 04:46:24;;;;;;;7.53;1.80;;;;;;;;;;10434401;28;20214;-77
2023/12/11 04:51:25;;;;;;;7.57;1.27;;;;;;;;;;10422331;28;20717;-76
2023/12/11 04:56:26;;;;;;;5.95;1.20;;;;;;;;;;10401537;28;20218;-76
2023/12/11 05:01:27;;;;;;;2.83;0.90;;;;;;;;;;10428618;28;20314;-77
2023/12/11 05:06:28;;;;;;;1.98;0.90;;;;;;;;;;10434875;28;20310;-76
2023/12/11 05:11:29;;;;;;;4.70;1.10;;;;;;;;;;10438225;28;20602;-76
2023/12/11 05:16:30;;;;;;;3.25;0.80;;;;;;;;;;10434926;28;20272;-76
2023/12/11 05:21:31;;;;;;;6.15;1.00;;;;;;;;;;10423305;28;20688;-76
2023/12/11 05:26:32;;;;;;;7.93;1.45;;;;;;;;;;10402091;28;20252;-77
2023/12/11 05:31:33;;;;;;;4.18;1.40;;;;;;;;;;10433037;28;20240;-76
2023/12/11 05:36:34;;;;;;;3.60;1.10;;;;;;;;;;10428217;28;20218;-77
2023/12/11 05:41:35;;;;;;;4.63;1.10;;;;;;;;;;10410069;28;20211;-77
2023/12/11 05:46:36;;;;;;;4.93;1.20;;;;;;;;;;10411427;28;20578;-76
2023/12/11 05:51:37;;;;;;;3.60;1.70;;;;;;;;;;10379390;28;20215;-76
2023/12/11 05:56:38;;;;;;;4.45;1.25;;;;;;;;;;10381238;28;20206;-78
2023/12/11 06:01:40;;;;;;;5.22;1.05;;;;;;;;;;10370197;28;20223;-78
2023/12/11 06:06:41;;;;;;;4.95;1.23;;;;;;;;;;10382133;28;20234;-78
2023/12/11 06:11:42;;;;;;;9.57;1.67;;;;;;;;;;10367511;28;20309;-76
2023/12/11 06:16:43;;;;;;;4.30;1.00;;;;;;;;;;10379251;28;20642;-78
2023/12/11 06:21:44;;;;;;;8.13;1.17;;;;;;;;;;10364157;28;20215;-77
2023/12/11 06:26:45;;;;;;;4.60;1.05;;;;;;;;;;10361120;28;20223;-76
2023/12/11 06:31:46;;;;;;;3.92;0.75;;;;;;;;;;10388341;28;20704;-75
2023/12/11 06:36:47;;;;;;;4.50;1.00;;;;;;;;;;10425430;28;20219;-78
2023/12/11 06:41:48;;;;;;;8.63;1.00;;;;;;;;;;10418709;28;20301;-76
2023/12/11 06:46:49;;;;;;;4.40;0.57;;;;;;;;;;10411170;28;20305;-77
2023/12/11 06:51:50;;;;;;;1.27;1.17;;;;;;;;;;10411623;28;20219;-77
2023/12/11 06:56:51;;;;;;;5.50;1.20;;;;;;;;;;10385445;28;20225;-76
2023/12/11 07:01:53;;;;;;;5.30;0.70;;;;;;;;;;10420723;28;20211;-77
2023/12/11 07:06:54;;;;;;;5.07;0.85;;;;;;;;;;10405132;28;20211;-77
2023/12/11 07:11:55;;;;;;;3.95;0.82;;;;;;;;;;10422555;28;21883;-78
2023/12/11 07:16:56;;;;;;;7.40;1.10;;;;;;;;;;10412536;28;20210;-77
2023/12/11 07:21:57;;;;;;;3.50;0.45;;;;;;;;;;10422952;28;20241;-78
2023/12/11 07:26:58;;;;;;;6.18;0.75;;;;;;;;;;10427724;28;20567;-78
2023/12/11 07:31:59;;;;;;;5.50;0.80;;;;;;;;;;10410301;28;20214;-77
2023/12/11 07:37:00;;;;;;;3.40;0.60;;;;;;;;;;10427801;28;20207;-78
2023/12/11 07:42:01;;;;;;;2.45;0.40;;;;;;;;;;10389019;28;20223;-79
2023/12/11 07:47:02;;;;;;;2.80;0.60;;;;;;;;;;10432344;28;20282;-77
2023/12/11 07:52:04;;;;;;;3.13;0.70;;;;;;;;;;10415940;28;20210;-78
2023/12/11 07:57:05;;;;;;;5.50;1.02;;;;;;;;;;10428184;28;20210;-79
2023/12/11 08:02:07;;;;;;;11.50;1.50;;;;;;;;;;10421817;28;20715;-78
2023/12/11 08:07:07;;;;;;;3.00;0.60;;;;;;;;;;10426421;28;20211;-79
2023/12/11 08:12:09;;;;;;;2.05;0.70;;;;;;;;;;10414467;28;20731;-78
2023/12/11 08:17:10;;;;;;;2.28;1.00;;;;;;;;;;10424960;28;20214;-78
2023/12/11 08:22:11;;;;;;;6.13;0.75;;;;;;;;;;10410205;28;20211;-78
2023/12/11 08:27:12;;;;;;;2.75;0.73;;;;;;;;;;10409504;28;20212;-77
2023/12/11 08:32:13;;;;;;;7.03;0.80;;;;;;;;;;10399098;28;20227;-78
2023/12/11 08:37:15;;;;;;;6.10;0.73;;;;;;;;;;10410650;28;20211;-78
2023/12/11 08:42:17;;;;;;;2.50;0.80;;;;;;;;;;10396745;28;20228;-78
2023/12/11 08:47:18;;;;;;;0.98;0.88;;;;;;;;;;10388529;28;20225;-78
2023/12/11 08:52:19;;;;;;;6.32;0.82;;;;;;;;;;10425134;28;20664;-78
2023/12/11 08:57:20;;;;;;;5.50;0.52;;;;;;;;;;10422751;28;20218;-79
2023/12/11 09:02:21;;;;;;;5.38;0.47;;;;;;;;;;10421018;28;20264;-77
2023/12/11 09:07:22;;;;;;;2.60;0.45;;;;;;;;;;10424098;28;20223;-77
2023/12/11 09:12:24;;;;;;;1.48;0.55;;;;;;;;;;10416980;28;20658;-78
2023/12/11 09:17:25;;;;;;;3.20;0.40;;;;;;;;;;10403978;28;20295;-80
2023/12/11 09:22:26;;;;;;;0.82;0.30;;;;;;;;;;10402736;28;21217;-78
2023/12/11 09:27:27;;;;;;;2.33;0.32;;;;;;;;;;10378896;28;20247;-78
2023/12/11 09:32:28;;;;;;;0.80;0.30;;;;;;;;;;10380647;28;20222;-79
2023/12/11 09:37:29;;;;;;;2.00;0.30;;;;;;;;;;10380509;28;20234;-78
2023/12/11 09:42:31;;;;;;;0.43;0.43;;;;;;;;;;10378273;28;20626;-78
2023/12/11 09:47:37;;;;;;;4.18;0.50;;;;;;;;;;10382964;28;20689;-77
2023/12/11 09:52:41;;;;;;;1.80;0.40;;;;;;;;;;10378586;28;20231;-78
2023/12/11 09:57:42;;;;;;;3.90;0.45;;;;;;;;;;10375285;28;20722;-78
2023/12/11 10:02:47;;;;;;;2.00;0.50;;;;;;;;;;10385581;28;20227;-78
2023/12/11 10:07:48;;;;;;;6.93;0.68;;;;;;;;;;10381239;28;20219;-78
2023/12/11 10:12:50;;;;;;;2.28;0.20;;;;;;;;;;10377564;28;20767;-76
2023/12/11 10:18:02;;;;;;;2.47;0.40;;;;;;;;;;10364067;28;20222;-77
2023/12/11 10:23:12;;;;;;;2.53;0.30;;;;;;;;;;10381597;28;20216;-77
2023/12/11 10:28:14;;;;;;;3.10;0.70;;;;;;;;;;10370158;28;20235;-76
2023/12/11 10:33:16;;;;;;;1.55;0.55;;;;;;;;;;10391515;28;20796;-76
2023/12/11 10:38:24;;;;;;;1.35;0.38;;;;;;;;;;10362904;28;20211;-76
2023/12/11 10:43:25;;;;;;;1.98;0.32;;;;;;;;;;10408912;28;20736;-77
2023/12/11 10:48:26;;;;;;;0.43;0.38;;;;;;;;;;10412552;28;20211;-77
2023/12/11 10:53:27;;;;;;;0.30;0.30;;;;;;;;;;10420131;28;20307;-76
2023/12/11 10:58:28;;;;;;;2.08;0.38;;;;;;;;;;10423962;28;20316;-81
2023/12/11 11:03:30;;;;;;;0.32;0.30;;;;;;;;;;10416934;28;20649;-77
2023/12/11 11:08:31;;;;;;;0.82;0.50;;;;;;;;;;10449212;28;20302;-77
2023/12/11 11:13:40;;;;;;;5.00;0.40;;;;;;;;;;10419928;28;20225;-77
2023/12/11 11:19:00;;;;;;;1.25;0.45;;;;;;;;;;10414329;28;20210;-77
2023/12/11 11:24:01;;;;;;;1.00;0.50;;;;;;;;;;10388478;28;20226;-78
2023/12/11 11:29:03;;;;;;;1.15;0.40;;;;;;;;;;10398717;28;20215;-78
2023/12/11 11:34:04;;;;;;;1.50;0.35;;;;;;;;;;10422439;28;20222;-77
2023/12/11 11:39:06;;;;;;;2.40;0.38;;;;;;;;;;10427250;28;20215;-76
2023/12/11 11:44:08;;;;;;;1.73;0.40;;;;;;;;;;10434702;28;20314;-78
2023/12/11 11:49:09;;;;;;;2.72;0.40;;;;;;;;;;10439063;28;20234;-78
2023/12/11 11:54:10;;;;;;;2.50;0.35;;;;;;;;;;10428781;28;20395;-79
